This is the latest recevied weather packets stored in our database for station/object KB1FFS. If no packets are shown the sender has not sent any weather packets the latest 10 day(s).
| Time | Temp. | Humidity | Pressure | Rain* | Wind** | Luminosity | Snow |
|---|---|---|---|---|---|---|---|
| 1777576247 | 17.22° C | 77% | 1015 hPa | 0 mm | - | 74 W/m² | - |
| 1777575943 | 17.22° C | 77% | 1015 hPa | 0 mm | - | 86 W/m² | - |
| 1777575639 | 17.22° C | 78% | 1015.4 hPa | 0 mm | - | 67 W/m² | - |
| 1777573816 | 17.22° C | 84% | 1014.4 hPa | 0 mm | - | 70 W/m² | - |
| 1777573208 | 17.22° C | 83% | 1014.3 hPa | 0 mm | - | 65 W/m² | - |
| 1777572295 | 17.22° C | 86% | 1014.5 hPa | 0 mm | - | 77 W/m² | - |
| 1777571085 | 17.22° C | 86% | 1015.5 hPa | 0 mm | - | 85 W/m² | - |
| 1777569869 | 16.67° C | 86% | 1015.9 hPa | 0 mm | - | 79 W/m² | - |
| 1777569566 | 16.67° C | 86% | 1016.2 hPa | 0 mm | - | 59 W/m² | - |
| 1777568958 | 16.67° C | 87% | 1015.4 hPa | 0 mm | - | 97 W/m² | - |
| 1777567746 | 16.67° C | 89% | 1015.6 hPa | 0 mm | - | 79 W/m² | - |
| 1777567140 | 16.67° C | 89% | 1015.7 hPa | 0 mm | - | 95 W/m² | - |
| 1777566838 | 16.67° C | 89% | 1015.6 hPa | 0.51 mm | - | 89 W/m² | - |
| 1777566233 | 16.67° C | 88% | 1016.5 hPa | 0.51 mm | - | 115 W/m² | - |
| 1777565625 | 16.67° C | 86% | 1017 hPa | 0 mm | - | 55 W/m² | - |
| 1777563498 | 16.67° C | 84% | 1017.5 hPa | 0 mm | - | 56 W/m² | - |
| 1777563197 | 16.67° C | 84% | 1017.7 hPa | 0 mm | - | 17 W/m² | - |
| 1777562894 | 16.67° C | 84% | 1017.2 hPa | 0 mm | - | 29 W/m² | - |
| 1777562590 | 16.67° C | 83% | 1017.3 hPa | 0 mm | - | 24 W/m² | - |
| 1777561986 | 16.67° C | 82% | 1017.4 hPa | 0 mm | - | 45 W/m² | - |
| 1777558341 | 16.11° C | 83% | 1016.5 hPa | 0 mm | - | 72 W/m² | - |
| 1777557734 | 15.56° C | 84% | 1015.8 hPa | 0 mm | - | 80 W/m² | - |
| 1777557431 | 15.56° C | 84% | 1015.9 hPa | 0 mm | - | 105 W/m² | - |
| 1777555915 | 15.56° C | 84% | 1015.7 hPa | 0 mm | - | 107 W/m² | - |
| 1777555611 | 15.56° C | 84% | 1015.7 hPa | 0 mm | - | 99 W/m² | - |
* Rain latest hour (hover to see other rain measurements)
** Current wind speed in m/s (hover to see current wind gust speed)